Terminal Aerodrome Forecast
Issued by NWS

Home | Current Version | Previous Version | Text Only | Print | Product List | Glossary On
Versions: 1 2 3 4 5 6 7 8 9 10 11 12 13 14 15 16 17 18
741
FTUS43 KDLH 190537
TAFHIB
TAF
KHIB 190537Z 1906/2006 30009KT P6SM BKN021
     FM190700 30009KT P6SM SCT021
     FM191400 27005KT P6SM VCSH BKN060
     FM192000 23006KT P6SM BKN060
     FM200000 21004KT P6SM SCT060=

USA.gov is the U.S. government's official web portal to all federal, state and local government web resources and services.